createdAt,value
2017-06-16T00:00:05.813Z,62.96
2017-06-16T00:00:31.923Z,62.67
2017-06-16T00:00:58.213Z,62.41
2017-06-16T00:01:24.248Z,62.12
2017-06-16T00:01:50.351Z,62.77
2017-06-16T00:02:16.442Z,62.57
2017-06-16T00:02:42.550Z,63.06
2017-06-16T00:03:08.678Z,62.9
2017-06-16T00:03:34.768Z,62.8
2017-06-16T00:04:00.876Z,62.51
2017-06-16T00:04:26.977Z,62.48
2017-06-16T00:04:53.067Z,62.57
2017-06-16T00:05:19.196Z,63.06
2017-06-16T00:05:45.329Z,63.25
2017-06-16T00:06:11.418Z,63.54
2017-06-16T00:06:37.542Z,63.34
2017-06-16T00:07:03.650Z,63.44
2017-06-16T00:07:29.739Z,63.44
2017-06-16T00:07:55.846Z,63.54
2017-06-16T00:08:21.937Z,64.4
2017-06-16T00:08:48.068Z,64.12
2017-06-16T00:09:14.204Z,64.4
2017-06-16T00:09:40.316Z,64.21
2017-06-16T00:10:06.416Z,64.12
2017-06-16T00:10:32.523Z,64.12
2017-06-16T00:10:58.616Z,64.4
2017-06-16T00:11:24.715Z,64.5
2017-06-16T00:11:50.839Z,64.4
2017-06-16T00:12:16.932Z,65.17
2017-06-16T00:12:43.024Z,64.31
2017-06-16T00:13:09.129Z,64.4
2017-06-16T00:13:35.258Z,64.4
2017-06-16T00:14:01.365Z,65.37
2017-06-16T00:14:27.456Z,64.21
2017-06-16T00:14:53.594Z,64.89
2017-06-16T00:15:19.701Z,64.5
2017-06-16T00:15:45.798Z,64.98
2017-06-16T00:16:11.889Z,65.53
2017-06-16T00:16:37.998Z,65.75
2017-06-16T00:17:04.095Z,65.05
2017-06-16T00:17:30.186Z,65.63
2017-06-16T00:17:56.622Z,65.33
2017-06-16T00:18:22.776Z,65.53
2017-06-16T00:18:48.907Z,65.43
2017-06-16T00:19:15.001Z,65.43
2017-06-16T00:19:41.227Z,65.24
2017-06-16T00:20:07.340Z,65.72
2017-06-16T00:20:33.492Z,65.81
2017-06-16T00:20:59.574Z,66.91
2017-06-16T00:21:25.752Z,66.49
2017-06-16T00:21:51.851Z,66.39
2017-06-16T00:22:18.017Z,66.01
2017-06-16T00:22:44.120Z,65.72
2017-06-16T00:23:10.228Z,65.91
2017-06-16T00:23:36.314Z,66.42
2017-06-16T00:24:02.462Z,66.33
2017-06-16T00:24:28.554Z,66.33
2017-06-16T00:24:54.663Z,66.04
2017-06-16T00:25:20.762Z,65.56
2017-06-16T00:25:46.853Z,65.94
2017-06-16T00:26:12.958Z,66.14
2017-06-16T00:26:39.065Z,65.94
2017-06-16T00:27:05.153Z,66.3
2017-06-16T00:27:31.252Z,66.58
2017-06-16T00:27:57.360Z,66.33
2017-06-16T00:28:23.480Z,65.72
2017-06-16T00:28:49.603Z,66.14
2017-06-16T00:29:15.708Z,66.33
2017-06-16T00:29:41.830Z,66.2
2017-06-16T00:30:07.934Z,66.49
2017-06-16T00:30:34.022Z,66.1
2017-06-16T00:31:00.122Z,66.78
2017-06-16T00:31:26.252Z,67.45
2017-06-16T00:31:52.400Z,66.39
2017-06-16T00:32:18.515Z,66.68
2017-06-16T00:32:44.649Z,66.2
2017-06-16T00:33:10.745Z,66.3
2017-06-16T00:33:36.860Z,66.58
2017-06-16T00:34:02.972Z,66.78
2017-06-16T00:34:29.067Z,66.68
2017-06-16T00:34:55.181Z,66.78
2017-06-16T00:35:21.289Z,66.58
2017-06-16T00:35:47.383Z,66.97
2017-06-16T00:36:13.516Z,66.97
2017-06-16T00:36:39.608Z,67.35
2017-06-16T00:37:05.700Z,66.49
2017-06-16T00:37:31.806Z,66.78
2017-06-16T00:37:57.931Z,67.35
2017-06-16T00:38:24.022Z,67.16
2017-06-16T00:38:50.145Z,66.68
2017-06-16T00:39:16.258Z,67.16
2017-06-16T00:39:42.348Z,67.07
2017-06-16T00:40:08.475Z,67.26
2017-06-16T00:40:34.583Z,67.16
2017-06-16T00:41:00.696Z,67.16
2017-06-16T00:41:26.798Z,66.97
2017-06-16T00:41:52.905Z,68.13
2017-06-16T00:42:18.997Z,67.16
2017-06-16T00:42:45.092Z,67.26
2017-06-16T00:43:11.200Z,67.35
2017-06-16T00:43:37.294Z,67.65
2017-06-16T00:44:03.435Z,67.55
2017-06-16T00:44:29.545Z,68.22
2017-06-16T00:44:55.643Z,67.74
2017-06-16T00:45:21.761Z,67.74
2017-06-16T00:45:47.869Z,67.26
2017-06-16T00:46:13.970Z,67.26
2017-06-16T00:46:40.070Z,67.07
2017-06-16T00:47:06.193Z,66.78
2017-06-16T00:47:32.283Z,67.35
2017-06-16T00:47:58.448Z,67.16
2017-06-16T00:48:24.573Z,67.55
2017-06-16T00:48:50.666Z,66.97
2017-06-16T00:49:16.827Z,66.97
2017-06-16T00:49:42.955Z,67.07
2017-06-16T00:50:09.047Z,67.35
2017-06-16T00:50:35.151Z,67.16
2017-06-16T00:51:01.258Z,67.35
2017-06-16T00:51:27.370Z,67.07
2017-06-16T00:51:53.470Z,67.35
2017-06-16T00:52:19.563Z,66.97
2017-06-16T00:52:45.672Z,67.65
2017-06-16T00:53:11.771Z,67.16
2017-06-16T00:53:37.863Z,68.03
2017-06-16T00:54:03.966Z,67.16
2017-06-16T00:54:30.102Z,67.65
2017-06-16T00:54:56.213Z,67.35
2017-06-16T00:55:22.315Z,67.93
2017-06-16T00:55:48.448Z,67.83
2017-06-16T00:56:14.539Z,68.13
2017-06-16T00:56:40.657Z,67.93
2017-06-16T00:57:06.763Z,67.93
2017-06-16T00:57:32.882Z,67.93
2017-06-16T00:57:58.990Z,67.83
2017-06-16T00:58:25.077Z,67.65
2017-06-16T00:58:51.207Z,67.83
2017-06-16T00:59:17.315Z,68.22
2017-06-16T00:59:43.456Z,67.83
2017-06-16T01:00:09.554Z,68.22
2017-06-16T01:00:35.660Z,67.26
2017-06-16T01:01:01.782Z,67.83
2017-06-16T01:01:27.921Z,67.74
2017-06-16T01:01:54.031Z,68.13
2017-06-16T01:02:20.130Z,67.83
2017-06-16T01:02:46.269Z,68.32
2017-06-16T01:03:12.376Z,68.13
2017-06-16T01:03:38.471Z,67.83
2017-06-16T01:04:04.579Z,67.83
2017-06-16T01:04:30.697Z,67.93
2017-06-16T01:04:56.813Z,68.03
2017-06-16T01:05:22.949Z,68.03
2017-06-16T01:05:49.044Z,67.74
2017-06-16T01:06:15.136Z,67.74
2017-06-16T01:06:41.269Z,67.83
2017-06-16T01:07:07.430Z,67.93
2017-06-16T01:07:33.487Z,67.74
2017-06-16T01:07:59.644Z,67.93
2017-06-16T01:08:25.752Z,68.03
2017-06-16T01:08:51.846Z,68.03
2017-06-16T01:09:17.995Z,67.74
2017-06-16T01:09:44.088Z,68.03
2017-06-16T01:10:10.219Z,67.93
2017-06-16T01:10:36.323Z,67.93
2017-06-16T01:11:02.414Z,67.35
2017-06-16T01:11:28.517Z,67.16
2017-06-16T01:11:54.681Z,67.35
2017-06-16T01:12:20.768Z,67.35
2017-06-16T01:12:46.891Z,66.78
2017-06-16T01:13:13.000Z,67.26
2017-06-16T01:13:39.120Z,68.22
2017-06-16T01:14:05.217Z,68.03
2017-06-16T01:14:31.312Z,67.65
2017-06-16T01:14:57.417Z,68.13
2017-06-16T01:15:23.526Z,67.74
2017-06-16T01:15:49.613Z,67.83
2017-06-16T01:16:15.712Z,67.74
2017-06-16T01:16:41.819Z,67.26
2017-06-16T01:17:07.910Z,67.16
2017-06-16T01:17:34.034Z,67.55
2017-06-16T01:18:00.165Z,67.16
2017-06-16T01:18:26.260Z,67.07
2017-06-16T01:18:52.349Z,67.07
2017-06-16T01:19:18.486Z,67.93
2017-06-16T01:19:44.584Z,68.13
2017-06-16T01:20:10.687Z,67.93
2017-06-16T01:20:36.779Z,67.83
2017-06-16T01:21:02.901Z,67.65
2017-06-16T01:21:29.008Z,67.26
2017-06-16T01:21:55.100Z,67.16
2017-06-16T01:22:21.191Z,67.35
2017-06-16T01:22:47.329Z,67.07
2017-06-16T01:23:13.428Z,67.45
2017-06-16T01:23:39.520Z,67.26
2017-06-16T01:24:05.625Z,67.26
2017-06-16T01:24:31.759Z,67.26
2017-06-16T01:24:57.841Z,66.78
2017-06-16T01:25:23.946Z,66.88
2017-06-16T01:25:50.090Z,66.39
2017-06-16T01:26:16.197Z,67.16
2017-06-16T01:26:42.299Z,67.16
2017-06-16T01:27:08.406Z,67.45
2017-06-16T01:27:34.551Z,67.35
2017-06-16T01:28:00.650Z,67.74
2017-06-16T01:28:26.754Z,67.35
2017-06-16T01:28:52.874Z,67.55
2017-06-16T01:29:18.989Z,67.16
2017-06-16T01:29:45.099Z,67.35
2017-06-16T01:30:11.223Z,67.55
2017-06-16T01:30:37.314Z,67.35
2017-06-16T01:31:03.447Z,67.35
2017-06-16T01:31:29.541Z,67.16
2017-06-16T01:31:55.678Z,67.35
2017-06-16T01:32:21.800Z,67.83
2017-06-16T01:32:47.913Z,67.35
2017-06-16T01:33:14.050Z,67.35
2017-06-16T01:33:40.147Z,67.16
2017-06-16T01:34:06.238Z,67.35
2017-06-16T01:34:32.343Z,67.26
2017-06-16T01:34:58.442Z,67.26
2017-06-16T01:35:24.534Z,67.16
2017-06-16T01:35:50.636Z,67.35
2017-06-16T01:36:16.744Z,67.26
2017-06-16T01:36:42.863Z,67.35
2017-06-16T01:37:09.011Z,67.55
2017-06-16T01:37:35.103Z,67.55
2017-06-16T01:38:01.211Z,67.35
2017-06-16T01:38:27.339Z,67.55
2017-06-16T01:38:53.456Z,67.07
2017-06-16T01:39:19.587Z,67.35
2017-06-16T01:39:45.723Z,67.26
2017-06-16T01:40:11.836Z,67.55
2017-06-16T01:40:37.936Z,67.35
2017-06-16T01:41:04.044Z,67.07
2017-06-16T01:41:30.134Z,67.26
2017-06-16T01:41:56.254Z,67.45
2017-06-16T01:42:22.378Z,67.26
2017-06-16T01:42:48.482Z,67.45
2017-06-16T01:43:14.616Z,67.83
2017-06-16T01:43:40.731Z,68.03
2017-06-16T01:44:06.856Z,67.83
2017-06-16T01:44:32.961Z,67.83
2017-06-16T01:44:59.054Z,67.93
2017-06-16T01:45:25.152Z,67.74
2017-06-16T01:45:51.260Z,67.65
2017-06-16T01:46:17.406Z,67.65
2017-06-16T01:46:43.496Z,67.65
2017-06-16T01:47:09.638Z,67.93
2017-06-16T01:47:35.785Z,67.83
2017-06-16T01:48:01.874Z,67.65
2017-06-16T01:48:28.008Z,68.22
2017-06-16T01:48:54.135Z,67.65
2017-06-16T01:49:20.227Z,68.32
2017-06-16T01:49:46.337Z,68.32
2017-06-16T01:50:12.444Z,68.13
2017-06-16T01:50:38.557Z,67.65
2017-06-16T01:51:04.684Z,68.13
2017-06-16T01:51:30.792Z,67.74
2017-06-16T01:51:56.884Z,67.55
2017-06-16T01:52:23.007Z,67.61
2017-06-16T01:52:49.113Z,68.22
2017-06-16T01:53:15.230Z,68.41
2017-06-16T01:53:41.366Z,68.6
2017-06-16T01:54:07.479Z,68.6
2017-06-16T01:54:33.582Z,68.41
2017-06-16T01:54:59.688Z,68.9
2017-06-16T01:55:25.779Z,68.99
2017-06-16T01:55:51.877Z,68.7
2017-06-16T01:56:17.984Z,68.7
2017-06-16T01:56:44.077Z,68.6
2017-06-16T01:57:10.173Z,68.6
2017-06-16T01:57:36.280Z,68.51
2017-06-16T01:58:02.384Z,68.57
2017-06-16T01:58:28.475Z,68.41
2017-06-16T01:58:54.583Z,68.99
2017-06-16T01:59:20.675Z,69.38
2017-06-16T01:59:46.783Z,69.28
2017-06-16T02:00:12.876Z,69.57
2017-06-16T02:00:38.966Z,69.38
2017-06-16T02:01:05.076Z,69.57
2017-06-16T02:01:31.175Z,69.28
2017-06-16T02:01:57.291Z,69.38
2017-06-16T02:02:23.397Z,69.38
2017-06-16T02:02:49.498Z,69.67
2017-06-16T02:03:15.609Z,69.76
2017-06-16T02:03:41.710Z,69.47
2017-06-16T02:04:07.816Z,69.76
2017-06-16T02:04:33.911Z,69.67
2017-06-16T02:05:00.007Z,69.47
2017-06-16T02:05:26.098Z,70.15
2017-06-16T02:05:52.230Z,70.05
2017-06-16T02:06:18.332Z,69.76
2017-06-16T02:06:44.448Z,69.85
2017-06-16T02:07:10.550Z,69.67
2017-06-16T02:07:36.656Z,70.15
2017-06-16T02:08:02.743Z,69.28
2017-06-16T02:08:28.842Z,70.15
2017-06-16T02:08:54.949Z,69.85
2017-06-16T02:09:21.069Z,69.76
2017-06-16T02:09:47.165Z,69.85
2017-06-16T02:10:13.273Z,69.38
2017-06-16T02:10:39.365Z,69.28
2017-06-16T02:11:05.454Z,69.09
2017-06-16T02:11:31.592Z,69.38
2017-06-16T02:11:57.717Z,69.09
2017-06-16T02:12:23.830Z,69.47
2017-06-16T02:12:49.938Z,69.38
2017-06-16T02:13:16.067Z,69.28
2017-06-16T02:13:42.182Z,69.38
2017-06-16T02:14:08.289Z,69.28
2017-06-16T02:14:34.394Z,69.28
2017-06-16T02:15:00.483Z,69.18
2017-06-16T02:15:26.608Z,69.57
2017-06-16T02:15:52.702Z,69.76
2017-06-16T02:16:18.836Z,69.28
2017-06-16T02:16:44.936Z,70.15
2017-06-16T02:17:11.054Z,69.95
2017-06-16T02:17:37.152Z,69.85
2017-06-16T02:18:03.256Z,69.95
2017-06-16T02:18:29.344Z,69.85
2017-06-16T02:18:55.472Z,69.76
2017-06-16T02:19:21.579Z,70.43
2017-06-16T02:19:47.669Z,70.01
2017-06-16T02:20:13.790Z,70.05
2017-06-16T02:20:39.923Z,70.34
2017-06-16T02:21:06.020Z,70.5
2017-06-16T02:21:32.126Z,70.68
2017-06-16T02:21:58.218Z,70.62
2017-06-16T02:22:24.340Z,70.62
2017-06-16T02:22:50.448Z,70.43
2017-06-16T02:23:16.565Z,70.24
2017-06-16T02:23:42.689Z,70.34
2017-06-16T02:24:08.796Z,70.15
2017-06-16T02:24:34.890Z,70.43
2017-06-16T02:25:01.005Z,70.15
2017-06-16T02:25:27.115Z,70.43
2017-06-16T02:25:53.214Z,70.11
2017-06-16T02:26:19.306Z,70.15
2017-06-16T02:26:45.413Z,70.4
2017-06-16T02:27:11.507Z,71.08
2017-06-16T02:27:37.610Z,71.08
2017-06-16T02:28:03.706Z,71.01
2017-06-16T02:28:29.847Z,70.98
2017-06-16T02:28:55.982Z,70.98
2017-06-16T02:29:22.105Z,71.36
2017-06-16T02:29:48.195Z,70.5
2017-06-16T02:30:14.330Z,70.78
2017-06-16T02:30:40.428Z,71.26
2017-06-16T02:31:06.518Z,71.26
2017-06-16T02:31:32.621Z,70.98
2017-06-16T02:31:58.729Z,71.55
2017-06-16T02:32:24.827Z,71.26
2017-06-16T02:32:50.925Z,70.98
2017-06-16T02:33:17.063Z,71.65
2017-06-16T02:33:43.171Z,71.36
2017-06-16T02:34:09.270Z,71.84
2017-06-16T02:34:35.387Z,71.94
2017-06-16T02:35:01.489Z,71.94
2017-06-16T02:35:27.599Z,70.98
2017-06-16T02:35:53.683Z,71.55
2017-06-16T02:36:19.807Z,71.65
2017-06-16T02:36:45.913Z,71.75
2017-06-16T02:37:12.007Z,71.59
2017-06-16T02:37:38.106Z,71.75
2017-06-16T02:38:04.231Z,71.36
2017-06-16T02:38:30.355Z,71.65
2017-06-16T02:38:56.518Z,71.46
2017-06-16T02:39:22.607Z,71.94
2017-06-16T02:39:48.708Z,71.65
2017-06-16T02:40:14.814Z,72.03
2017-06-16T02:40:40.904Z,71.94
2017-06-16T02:41:07.025Z,72.23
2017-06-16T02:41:33.133Z,72.03
2017-06-16T02:41:59.228Z,71.94
2017-06-16T02:42:25.344Z,72.52
2017-06-16T02:42:51.452Z,72.03
2017-06-16T02:43:17.606Z,72.71
2017-06-16T02:43:43.731Z,72.32
2017-06-16T02:44:09.847Z,72.32
2017-06-16T02:44:35.942Z,72.42
2017-06-16T02:45:02.050Z,72.61
2017-06-16T02:45:28.143Z,72.03
2017-06-16T02:45:54.259Z,72.8
2017-06-16T02:46:20.369Z,72.52
2017-06-16T02:46:46.466Z,72.42
2017-06-16T02:47:12.558Z,72.8
2017-06-16T02:47:38.662Z,72.8
2017-06-16T02:48:04.764Z,72.42
2017-06-16T02:48:30.855Z,72.42
2017-06-16T02:48:56.958Z,72.9
2017-06-16T02:49:23.073Z,72.61
2017-06-16T02:49:49.184Z,72.42
2017-06-16T02:50:15.279Z,72.52
2017-06-16T02:50:41.372Z,72.9
2017-06-16T02:51:07.478Z,72.71
2017-06-16T02:51:33.579Z,72.42
2017-06-16T02:51:59.694Z,72.42
2017-06-16T02:52:25.824Z,72.42
2017-06-16T02:52:51.957Z,72.8
2017-06-16T02:53:18.069Z,72.32
2017-06-16T02:53:44.169Z,72.8
2017-06-16T02:54:10.276Z,72.9
2017-06-16T02:54:36.420Z,72.42
2017-06-16T02:55:02.540Z,72.23
2017-06-16T02:55:28.647Z,72.32
2017-06-16T02:55:54.765Z,72.03
2017-06-16T02:56:20.857Z,73.19
2017-06-16T02:56:46.964Z,72.9
2017-06-16T02:57:13.062Z,72.52
2017-06-16T02:57:39.153Z,72.9
2017-06-16T02:58:05.285Z,72.03
2017-06-16T02:58:31.384Z,72.8
2017-06-16T02:58:57.477Z,72.23
2017-06-16T02:59:23.583Z,72.32
2017-06-16T02:59:49.717Z,72.13
2017-06-16T03:00:15.810Z,72.71
2017-06-16T03:00:41.910Z,73.09
2017-06-16T03:01:08.000Z,72.9
2017-06-16T03:01:34.104Z,72.61
2017-06-16T03:02:00.203Z,73
2017-06-16T03:02:26.292Z,72.52
2017-06-16T03:02:52.395Z,73
2017-06-16T03:03:18.501Z,72.52
2017-06-16T03:03:44.589Z,73.38
2017-06-16T03:04:10.691Z,73.38
2017-06-16T03:04:36.799Z,73.09
2017-06-16T03:05:02.890Z,73.09
2017-06-16T03:05:29.009Z,73.09
2017-06-16T03:05:55.108Z,73.67
2017-06-16T03:06:21.211Z,73.77
2017-06-16T03:06:47.374Z,73.38
2017-06-16T03:07:13.461Z,73.86
2017-06-16T03:07:39.559Z,73.77
2017-06-16T03:08:05.666Z,73.57
2017-06-16T03:08:31.755Z,73.38
2017-06-16T03:08:57.852Z,73.77
2017-06-16T03:09:23.959Z,73.77
2017-06-16T03:09:50.118Z,73.67
2017-06-16T03:10:16.247Z,73.86
2017-06-16T03:10:42.380Z,73.67
2017-06-16T03:11:08.479Z,73.77
2017-06-16T03:11:34.581Z,73.96
2017-06-16T03:12:00.695Z,73.57
2017-06-16T03:12:26.795Z,73.96
2017-06-16T03:12:52.901Z,73.47
2017-06-16T03:13:19.016Z,73.67
2017-06-16T03:13:45.106Z,73.96
2017-06-16T03:14:11.215Z,73.86
2017-06-16T03:14:37.314Z,73.77
2017-06-16T03:15:03.431Z,73.47
2017-06-16T03:15:29.563Z,73.67
2017-06-16T03:15:55.663Z,73.28
2017-06-16T03:16:21.775Z,73.67
2017-06-16T03:16:47.880Z,73.57
2017-06-16T03:17:13.994Z,73.67
2017-06-16T03:17:40.104Z,73.77
2017-06-16T03:18:06.202Z,73.77
2017-06-16T03:18:32.291Z,73.57
2017-06-16T03:18:58.398Z,73.77
2017-06-16T03:19:24.504Z,73.77
2017-06-16T03:19:50.595Z,73.77
2017-06-16T03:20:16.699Z,73.96
2017-06-16T03:20:42.808Z,73.96
2017-06-16T03:21:08.922Z,73.86
2017-06-16T03:21:35.047Z,73.86
2017-06-16T03:22:01.153Z,73.77
2017-06-16T03:22:27.242Z,73.77
2017-06-16T03:22:53.345Z,73.77
2017-06-16T03:23:19.485Z,73.77
2017-06-16T03:23:45.615Z,73.57
2017-06-16T03:24:11.722Z,73.77
2017-06-16T03:24:37.835Z,73.77
2017-06-16T03:25:03.937Z,74.05
2017-06-16T03:25:30.042Z,74.15
2017-06-16T03:25:56.132Z,73.57
2017-06-16T03:26:22.229Z,73.77
2017-06-16T03:26:48.336Z,73.86
2017-06-16T03:27:14.428Z,73.77
2017-06-16T03:27:40.518Z,73.57
2017-06-16T03:28:06.622Z,74.54
2017-06-16T03:28:32.722Z,74.63
2017-06-16T03:28:58.855Z,74.15
2017-06-16T03:29:24.969Z,73.96
2017-06-16T03:29:51.092Z,74.15
2017-06-16T03:30:17.198Z,74.15
2017-06-16T03:30:43.305Z,74.15
2017-06-16T03:31:09.397Z,73.86
2017-06-16T03:31:35.507Z,73.67
2017-06-16T03:32:01.603Z,73.38
2017-06-16T03:32:27.694Z,73.77
2017-06-16T03:32:53.801Z,73.77
2017-06-16T03:33:19.900Z,73.67
2017-06-16T03:33:46.003Z,73.67
2017-06-16T03:34:12.097Z,74.54
2017-06-16T03:34:38.188Z,74.15
2017-06-16T03:35:04.299Z,73.96
2017-06-16T03:35:30.397Z,73.86
2017-06-16T03:35:56.512Z,73.57
2017-06-16T03:36:22.619Z,73.96
2017-06-16T03:36:48.717Z,74.05
2017-06-16T03:37:14.807Z,73.86
2017-06-16T03:37:40.912Z,73.86
2017-06-16T03:38:07.017Z,73.86
2017-06-16T03:38:33.132Z,73.77
2017-06-16T03:38:59.229Z,73.86
2017-06-16T03:39:25.362Z,73.67
2017-06-16T03:39:51.453Z,73.77
2017-06-16T03:40:17.551Z,73.77
2017-06-16T03:40:43.656Z,73.77
2017-06-16T03:41:09.751Z,73.77
2017-06-16T03:41:35.842Z,73.57
2017-06-16T03:42:01.950Z,73.77
2017-06-16T03:42:28.046Z,74.63
2017-06-16T03:42:54.136Z,74.54
2017-06-16T03:43:20.244Z,74.54
2017-06-16T03:43:46.343Z,74.63
2017-06-16T03:44:12.460Z,73.57
2017-06-16T03:44:38.563Z,74.05
2017-06-16T03:45:04.653Z,73.67
2017-06-16T03:45:30.790Z,74.15
2017-06-16T03:45:56.885Z,74.15
2017-06-16T03:46:22.979Z,74.63
2017-06-16T03:46:49.110Z,74.54
2017-06-16T03:47:15.239Z,74.63
2017-06-16T03:47:41.332Z,74.63
2017-06-16T03:48:07.432Z,74.82
2017-06-16T03:48:33.537Z,74.92
2017-06-16T03:48:59.624Z,74.73
2017-06-16T03:49:25.722Z,74.82
2017-06-16T03:49:51.830Z,74.73
2017-06-16T03:50:17.947Z,75.02
2017-06-16T03:50:44.105Z,75.21
2017-06-16T03:51:10.196Z,74.92
2017-06-16T03:51:36.326Z,74.73
2017-06-16T03:52:02.463Z,74.63
2017-06-16T03:52:28.574Z,74.82
2017-06-16T03:52:54.699Z,74.92
2017-06-16T03:53:20.807Z,74.92
2017-06-16T03:53:46.897Z,75.02
2017-06-16T03:54:13.021Z,74.82
2017-06-16T03:54:39.130Z,75.11
2017-06-16T03:55:05.225Z,75.31
2017-06-16T03:55:31.341Z,75.11
2017-06-16T03:55:57.444Z,74.92
2017-06-16T03:56:23.547Z,75.21
2017-06-16T03:56:49.705Z,74.63
2017-06-16T03:57:15.848Z,74.54
2017-06-16T03:57:41.944Z,75.11
2017-06-16T03:58:08.050Z,75.4
2017-06-16T03:58:34.170Z,75.11
2017-06-16T03:59:00.284Z,75.21
2017-06-16T03:59:26.393Z,75.11
2017-06-16T03:59:52.491Z,74.54
2017-06-16T04:00:18.583Z,75.02
2017-06-16T04:00:44.687Z,74.63
2017-06-16T04:01:10.786Z,75.02
2017-06-16T04:01:36.884Z,75.4
2017-06-16T04:02:03.006Z,75.02
2017-06-16T04:02:29.097Z,75.21
2017-06-16T04:02:55.235Z,75.98
2017-06-16T04:03:21.358Z,75.31
2017-06-16T04:03:47.475Z,75.4
2017-06-16T04:04:13.581Z,75.21
2017-06-16T04:04:39.682Z,75.31
2017-06-16T04:05:05.778Z,75.4
2017-06-16T04:05:31.882Z,75.21
2017-06-16T04:05:57.988Z,75.37
2017-06-16T04:06:24.076Z,75.37
2017-06-16T04:06:50.186Z,75.4
2017-06-16T04:07:16.297Z,75.84
2017-06-16T04:07:42.432Z,75.69
2017-06-16T04:08:08.533Z,75.46
2017-06-16T04:08:34.622Z,75.65
2017-06-16T04:09:00.726Z,75.69
2017-06-16T04:09:26.859Z,75.4
2017-06-16T04:09:52.947Z,75.79
2017-06-16T04:10:19.049Z,75.46
2017-06-16T04:10:45.155Z,75.37
2017-06-16T04:11:11.245Z,75.4
2017-06-16T04:11:37.342Z,75.46
2017-06-16T04:12:03.503Z,75.75
2017-06-16T04:12:29.622Z,75.37
2017-06-16T04:12:55.728Z,75.56
2017-06-16T04:13:21.817Z,75.65
2017-06-16T04:13:47.917Z,75.69
2017-06-16T04:14:14.024Z,75.17
2017-06-16T04:14:40.115Z,74.98
2017-06-16T04:15:06.235Z,75.37
2017-06-16T04:15:32.341Z,75.75
2017-06-16T04:15:58.436Z,74.98
2017-06-16T04:16:24.528Z,75.21
2017-06-16T04:16:50.637Z,75.4
2017-06-16T04:17:16.732Z,75.11
2017-06-16T04:17:42.823Z,74.54
2017-06-16T04:18:08.930Z,75.11
2017-06-16T04:18:35.023Z,74.54
2017-06-16T04:19:01.131Z,75.11
2017-06-16T04:19:27.226Z,74.3
2017-06-16T04:19:53.318Z,74.73
2017-06-16T04:20:19.428Z,74.63
2017-06-16T04:20:45.526Z,74.44
2017-06-16T04:21:11.640Z,74.63
2017-06-16T04:21:37.745Z,74.15
2017-06-16T04:22:03.844Z,73.77
2017-06-16T04:22:29.935Z,73.77
2017-06-16T04:22:56.038Z,73.57
2017-06-16T04:23:22.174Z,73.67
2017-06-16T04:23:48.287Z,73.67
2017-06-16T04:24:14.409Z,74.05
2017-06-16T04:24:40.515Z,73.67
2017-06-16T04:25:06.631Z,73.67
2017-06-16T04:25:32.728Z,73.77
2017-06-16T04:25:58.836Z,73.67
2017-06-16T04:26:24.929Z,73.86
2017-06-16T04:26:51.018Z,73.77
2017-06-16T04:27:17.128Z,73.67
2017-06-16T04:27:43.225Z,73.77
2017-06-16T04:28:09.319Z,73.77
2017-06-16T04:28:35.425Z,73.86
2017-06-16T04:29:01.582Z,73.47
2017-06-16T04:29:27.684Z,73.19
2017-06-16T04:29:53.831Z,73.67
2017-06-16T04:30:19.944Z,73.86
2017-06-16T04:30:46.054Z,73.77
2017-06-16T04:31:12.151Z,73.67
2017-06-16T04:31:38.266Z,73.67
2017-06-16T04:32:04.400Z,73.57
2017-06-16T04:32:30.501Z,73.96
2017-06-16T04:32:56.617Z,74.73
2017-06-16T04:33:22.722Z,74.25
2017-06-16T04:33:48.830Z,74.63
2017-06-16T04:34:14.944Z,74.54
2017-06-16T04:34:41.044Z,74.15
2017-06-16T04:35:07.165Z,73.96
2017-06-16T04:35:33.301Z,73.77
2017-06-16T04:35:59.430Z,74.73
2017-06-16T04:36:25.544Z,74.54
2017-06-16T04:36:51.698Z,74.34
2017-06-16T04:37:17.830Z,74.63
2017-06-16T04:37:43.918Z,74.54
2017-06-16T04:38:10.017Z,74.73
2017-06-16T04:38:36.123Z,74.34
2017-06-16T04:39:02.216Z,74.63
2017-06-16T04:39:28.315Z,74.34
2017-06-16T04:39:54.449Z,74.34
2017-06-16T04:40:20.544Z,74.82
2017-06-16T04:40:46.652Z,74.73
2017-06-16T04:41:12.739Z,74.73
2017-06-16T04:41:38.861Z,74.63
2017-06-16T04:42:04.967Z,74.73
2017-06-16T04:42:31.058Z,74.34
2017-06-16T04:42:57.163Z,74.15
2017-06-16T04:43:23.290Z,74.82
2017-06-16T04:43:49.414Z,75.02
2017-06-16T04:44:15.503Z,74.82
2017-06-16T04:44:41.639Z,74.82
2017-06-16T04:45:07.736Z,75.11
2017-06-16T04:45:33.827Z,74.82
2017-06-16T04:45:59.962Z,74.73
2017-06-16T04:46:26.055Z,74.63
2017-06-16T04:46:52.163Z,74.82
2017-06-16T04:47:18.282Z,74.82
2017-06-16T04:47:44.398Z,74.92
2017-06-16T04:48:10.533Z,74.34
2017-06-16T04:48:36.660Z,74.82
2017-06-16T04:49:02.750Z,75.11
2017-06-16T04:49:28.855Z,74.82
2017-06-16T04:49:54.956Z,74.63
2017-06-16T04:50:21.045Z,74.73
2017-06-16T04:50:47.148Z,74.73
2017-06-16T04:51:13.255Z,74.82
2017-06-16T04:51:39.348Z,74.73
2017-06-16T04:52:05.445Z,74.92
2017-06-16T04:52:31.534Z,74.34
2017-06-16T04:52:57.641Z,74.54
2017-06-16T04:53:23.740Z,74.34
2017-06-16T04:53:49.832Z,74.25
2017-06-16T04:54:15.961Z,74.15
2017-06-16T04:54:42.097Z,74.15
2017-06-16T04:55:08.183Z,74.34
2017-06-16T04:55:34.285Z,74.63
2017-06-16T04:56:00.390Z,74.73
2017-06-16T04:56:26.480Z,74.73
2017-06-16T04:56:52.581Z,74.15
2017-06-16T04:57:18.679Z,73.77
2017-06-16T04:57:44.784Z,73.77
2017-06-16T04:58:10.918Z,73.67
2017-06-16T04:58:37.030Z,73.9
2017-06-16T04:59:03.133Z,73.86
2017-06-16T04:59:29.239Z,73.77
2017-06-16T04:59:55.353Z,74.34
2017-06-16T05:00:21.474Z,74.15
2017-06-16T05:00:47.583Z,74.54
2017-06-16T05:01:13.678Z,74.15
2017-06-16T05:01:39.793Z,74.05
2017-06-16T05:02:05.933Z,73.71
2017-06-16T05:02:32.029Z,73.32
2017-06-16T05:02:58.133Z,72.74
2017-06-16T05:03:24.223Z,72.39
2017-06-16T05:03:50.361Z,71.76
2017-06-16T05:04:16.508Z,70.41
2017-06-16T05:04:42.599Z,69.83
2017-06-16T05:05:08.690Z,69.48
2017-06-16T05:05:34.825Z,69.19
2017-06-16T05:06:00.921Z,68.71
2017-06-16T05:06:27.010Z,69.09
2017-06-16T05:06:53.118Z,68.42
2017-06-16T05:07:19.218Z,67.74
2017-06-16T05:07:45.309Z,66.97
2017-06-16T05:08:11.440Z,67.2
2017-06-16T05:08:37.549Z,67.4
2017-06-16T05:09:03.637Z,67.58
2017-06-16T05:09:29.736Z,67.49
2017-06-16T05:09:55.843Z,67.49
2017-06-16T05:10:21.960Z,66.62
2017-06-16T05:10:48.059Z,66.72
2017-06-16T05:11:14.167Z,66.56
2017-06-16T05:11:40.264Z,65.78
2017-06-16T05:12:06.355Z,65.2
2017-06-16T05:12:32.465Z,65.01
2017-06-16T05:12:58.588Z,64.56
2017-06-16T05:13:24.704Z,64.56
2017-06-16T05:13:50.840Z,64.28
2017-06-16T05:14:16.939Z,64.37
2017-06-16T05:14:43.074Z,65.2
2017-06-16T05:15:09.168Z,65.01
2017-06-16T05:15:35.261Z,64.82
2017-06-16T05:16:01.371Z,65.78
2017-06-16T05:16:27.494Z,65.11
2017-06-16T05:16:53.585Z,65.2
2017-06-16T05:17:19.722Z,65.66
2017-06-16T05:17:45.825Z,66.52
2017-06-16T05:18:11.916Z,66.24
2017-06-16T05:18:38.048Z,66.52
2017-06-16T05:19:04.154Z,66.82
2017-06-16T05:19:30.273Z,67.1
2017-06-16T05:19:56.396Z,66.62
2017-06-16T05:20:22.489Z,67.07
2017-06-16T05:20:48.622Z,67.4
2017-06-16T05:21:14.723Z,67.55
2017-06-16T05:21:40.816Z,68.04
2017-06-16T05:22:06.918Z,67.84
2017-06-16T05:22:33.026Z,68.13
2017-06-16T05:22:59.139Z,68.23
2017-06-16T05:23:25.265Z,67.74
2017-06-16T05:23:51.374Z,68.42
2017-06-16T05:24:17.493Z,68.04
2017-06-16T05:24:43.619Z,67.74
2017-06-16T05:25:09.717Z,68.32
2017-06-16T05:25:35.822Z,68.61
2017-06-16T05:26:01.956Z,68.71
2017-06-16T05:26:28.044Z,68.9
2017-06-16T05:26:54.174Z,68.71
2017-06-16T05:27:20.277Z,68.9
2017-06-16T05:27:46.371Z,68.99
2017-06-16T05:28:12.516Z,68.9
2017-06-16T05:28:38.651Z,68.9
2017-06-16T05:29:04.747Z,68.99
2017-06-16T05:29:30.841Z,69.67
2017-06-16T05:29:56.948Z,69.38
2017-06-16T05:30:23.045Z,69.48
2017-06-16T05:30:49.178Z,69.19
2017-06-16T05:31:15.323Z,69.29
2017-06-16T05:31:41.439Z,69.35
2017-06-16T05:32:07.545Z,69.48
2017-06-16T05:32:33.640Z,69.25
2017-06-16T05:32:59.732Z,69.45
2017-06-16T05:33:25.844Z,69.06
2017-06-16T05:33:51.942Z,69.48
2017-06-16T05:34:18.033Z,69.35
2017-06-16T05:34:44.141Z,69.19
2017-06-16T05:35:10.243Z,69.06
2017-06-16T05:35:36.334Z,69.35
2017-06-16T05:36:02.437Z,69.93
2017-06-16T05:36:28.529Z,69.93
2017-06-16T05:36:54.639Z,69.93